createdAt,value
2019-05-09T01:03:03.430Z,97945.80
2019-05-09T01:05:34.263Z,97950.89
2019-05-09T01:08:06.210Z,97944.00
2019-05-09T01:10:37.104Z,97948.66
2019-05-09T01:13:08.024Z,97943.85
2019-05-09T01:15:38.872Z,97937.52
2019-05-09T01:18:09.764Z,97944.48
2019-05-09T01:20:40.661Z,97942.66
2019-05-09T01:23:11.342Z,97945.13
2019-05-09T01:25:43.600Z,97934.75
2019-05-09T01:28:14.550Z,97936.23
2019-05-09T01:30:45.373Z,97933.71
2019-05-09T01:33:35.112Z,97932.70
2019-05-09T01:36:06.046Z,97937.23
2019-05-09T01:38:36.833Z,97941.98
2019-05-09T01:41:07.599Z,97933.17
2019-05-09T01:43:38.336Z,97935.14
2019-05-09T01:46:09.069Z,97931.88
2019-05-09T01:48:39.873Z,97937.69
2019-05-09T01:51:10.640Z,97943.84
2019-05-09T01:53:46.949Z,97936.55
2019-05-09T01:56:17.748Z,97934.43
2019-05-09T01:58:48.674Z,97937.89
2019-05-09T02:01:19.416Z,97934.52
2019-05-09T02:03:50.253Z,97938.36
2019-05-09T02:06:21.295Z,97938.72
2019-05-09T02:08:54.267Z,97942.66
2019-05-09T02:11:38.420Z,97939.14
2019-05-09T02:13:56.836Z,97936.70
2019-05-09T02:16:45.404Z,97934.52
2019-05-09T02:19:24.135Z,97932.48
2019-05-09T02:21:55.056Z,97928.11
2019-05-09T02:24:25.951Z,97918.97
2019-05-09T02:26:56.932Z,97922.53
2019-05-09T02:29:27.829Z,97924.70
2019-05-09T02:31:58.635Z,97910.63
2019-05-09T02:34:29.477Z,97913.77
2019-05-09T02:37:00.276Z,97918.11
2019-05-09T02:39:31.151Z,97917.63
2019-05-09T02:42:09.347Z,97931.05
2019-05-09T02:44:34.509Z,97927.09
2019-05-09T02:47:10.554Z,97926.02
2019-05-09T02:49:41.444Z,97924.36
2019-05-09T02:52:12.264Z,97914.89
2019-05-09T02:54:43.022Z,97916.98
2019-05-09T02:57:13.889Z,97915.80
2019-05-09T03:00:01.400Z,97912.86
2019-05-09T03:02:40.795Z,97893.22
2019-05-09T03:05:12.226Z,97888.44
2019-05-09T03:07:52.362Z,97876.61
2019-05-09T03:10:23.865Z,97866.37
2019-05-09T03:12:54.752Z,97860.38
2019-05-09T03:15:28.810Z,97867.29
2019-05-09T03:18:00.005Z,97864.99
2019-05-09T03:21:05.107Z,97858.42
2019-05-09T03:23:38.815Z,97857.46
2019-05-09T03:26:10.026Z,97849.59
2019-05-09T03:28:59.305Z,97850.31
2019-05-09T03:31:31.388Z,97837.37
2019-05-09T03:34:02.335Z,97831.67
2019-05-09T03:36:33.174Z,97833.64
2019-05-09T03:39:08.052Z,97826.19
2019-05-09T03:41:39.503Z,97829.34
2019-05-09T03:44:10.524Z,97824.23
2019-05-09T03:46:53.751Z,97825.58
2019-05-09T03:49:24.695Z,97814.57
2019-05-09T03:51:55.499Z,97812.91
2019-05-09T03:54:28.335Z,97807.58
2019-05-09T03:57:04.571Z,97804.94
2019-05-09T03:59:38.094Z,97797.45
2019-05-09T04:02:10.346Z,97799.32
2019-05-09T04:04:41.480Z,97784.79
2019-05-09T04:07:12.217Z,97786.75
2019-05-09T04:09:43.129Z,97788.34
2019-05-09T04:12:13.961Z,97788.25
2019-05-09T04:14:44.719Z,97790.42
2019-05-09T04:20:40.608Z,97786.17
2019-05-09T04:23:11.267Z,97790.58
2019-05-09T04:25:58.353Z,97793.58
2019-05-09T04:28:29.337Z,97796.31
2019-05-09T04:31:00.275Z,97798.11
2019-05-09T04:33:31.096Z,97788.40
2019-05-09T04:36:02.049Z,97793.14
2019-05-09T04:38:32.846Z,97801.77
2019-05-09T04:41:03.565Z,97792.78
2019-05-09T04:43:37.481Z,97788.78
2019-05-09T04:46:12.854Z,97788.67
2019-05-09T04:48:41.106Z,97786.09
2019-05-09T04:51:11.765Z,97786.39
2019-05-09T04:53:42.500Z,97786.58
2019-05-09T04:56:21.617Z,97785.89
2019-05-09T04:58:52.167Z,97784.05
2019-05-09T05:01:40.891Z,97787.69
2019-05-09T05:04:12.052Z,97792.38
2019-05-09T05:06:42.909Z,97794.14
2019-05-09T05:09:13.665Z,97791.61
2019-05-09T05:11:49.108Z,97791.59
2019-05-09T05:14:22.921Z,97788.97
2019-05-09T05:17:03.211Z,97795.47
2019-05-09T05:19:31.151Z,97800.91
2019-05-09T05:22:08.129Z,97794.70
2019-05-09T05:24:48.752Z,97800.14
2019-05-09T05:27:19.094Z,97796.36
2019-05-09T05:29:50.800Z,97798.80
2019-05-09T05:32:30.213Z,97781.27
2019-05-09T05:35:19.869Z,97777.80
2019-05-09T05:37:50.903Z,97772.38
2019-05-09T05:40:21.858Z,97768.11
2019-05-09T05:42:52.670Z,97767.83
2019-05-09T05:45:24.512Z,97761.91
2019-05-09T05:47:58.554Z,97754.61
2019-05-09T05:50:29.574Z,97749.21
2019-05-09T05:53:00.180Z,97750.31
2019-05-09T05:55:30.855Z,97744.63
2019-05-09T05:58:01.756Z,97749.23
2019-05-09T06:00:32.651Z,97746.83
2019-05-09T06:03:03.349Z,97755.98
2019-05-09T06:05:34.190Z,97748.73
2019-05-09T06:08:08.202Z,97742.77
2019-05-09T06:10:38.806Z,97747.63
2019-05-09T06:13:09.685Z,97750.03
2019-05-09T06:15:40.610Z,97744.34
2019-05-09T06:18:11.438Z,97733.27
2019-05-09T06:20:45.441Z,97732.75
2019-05-09T06:23:14.580Z,97743.86
2019-05-09T06:25:48.252Z,97745.22
2019-05-09T06:28:18.323Z,97763.06
2019-05-09T06:30:49.230Z,97758.96
2019-05-09T06:33:19.956Z,97767.63
2019-05-09T06:35:50.673Z,97773.82
2019-05-09T06:38:21.658Z,97769.50
2019-05-09T06:40:52.419Z,97767.31
2019-05-09T06:43:25.649Z,97768.09
2019-05-09T06:46:14.277Z,97777.27
2019-05-09T06:48:45.099Z,97778.81
2019-05-09T06:51:20.432Z,97776.92
2019-05-09T06:53:48.828Z,97774.81
2019-05-09T06:56:20.898Z,97773.16
2019-05-09T06:58:51.645Z,97766.95
2019-05-09T07:01:37.572Z,97773.70
2019-05-09T07:04:21.079Z,97774.49
2019-05-09T07:06:59.322Z,97768.32
2019-05-09T07:09:33.566Z,97772.15
2019-05-09T07:12:04.406Z,97767.31
2019-05-09T07:14:39.134Z,97776.77
2019-05-09T07:17:09.252Z,97775.72
2019-05-09T07:19:43.560Z,97770.05
2019-05-09T07:22:23.153Z,97773.00
2019-05-09T07:25:06.424Z,97773.03
2019-05-09T07:27:35.868Z,97779.50
2019-05-09T07:30:23.749Z,97778.43
2019-05-09T07:33:04.801Z,97780.57
2019-05-09T07:35:38.010Z,97767.89
2019-05-09T07:38:08.665Z,97774.91
2019-05-09T07:40:39.707Z,97770.31
2019-05-09T07:43:10.580Z,97771.69
2019-05-09T07:46:00.231Z,97772.77
2019-05-09T07:48:30.968Z,97772.50
2019-05-09T07:51:02.786Z,97776.28
2019-05-09T07:53:33.562Z,97776.28
2019-05-09T07:56:04.288Z,97772.24
2019-05-09T07:58:37.521Z,97771.39
2019-05-09T08:01:08.571Z,97754.34
2019-05-09T08:03:39.733Z,97747.50
2019-05-09T08:06:10.749Z,97751.80
2019-05-09T08:08:41.513Z,97741.57
2019-05-09T08:11:12.209Z,97742.11
2019-05-09T08:13:42.941Z,97744.20
2019-05-09T08:16:14.759Z,97750.91
2019-05-09T08:18:48.157Z,97744.64
2019-05-09T08:21:19.178Z,97744.29
2019-05-09T08:23:50.025Z,97740.67
2019-05-09T08:26:20.809Z,97743.77
2019-05-09T08:28:51.681Z,97739.02
2019-05-09T08:31:22.599Z,97737.59
2019-05-09T08:33:53.397Z,97737.01
2019-05-09T08:36:24.162Z,97744.96
2019-05-09T08:38:55.074Z,97739.38
2019-05-09T08:41:28.749Z,97738.42
2019-05-09T08:43:58.397Z,97738.31
2019-05-09T08:46:29.112Z,97743.80
2019-05-09T08:48:59.885Z,97742.19
2019-05-09T08:52:15.486Z,97742.39
2019-05-09T08:54:45.239Z,97745.34
2019-05-09T08:57:18.055Z,97752.21
2019-05-09T08:59:50.735Z,97752.11
2019-05-09T09:02:22.368Z,97759.84
2019-05-09T09:04:53.579Z,97756.64
2019-05-09T09:07:24.272Z,97763.84
2019-05-09T09:09:57.580Z,97762.89
2019-05-09T09:12:34.066Z,97772.39
2019-05-09T09:15:00.066Z,97771.31
2019-05-09T09:17:30.681Z,97778.13
2019-05-09T09:20:01.481Z,97766.22
2019-05-09T09:22:32.284Z,97772.08
2019-05-09T09:25:03.805Z,97769.33
2019-05-09T09:27:34.609Z,97769.02
2019-05-09T09:30:19.974Z,97767.20
2019-05-09T09:32:38.864Z,97769.90
2019-05-09T09:35:10.954Z,97776.03
2019-05-09T09:37:48.339Z,97764.59
2019-05-09T09:40:14.875Z,97773.20
2019-05-09T09:42:45.776Z,97770.81
2019-05-09T09:45:18.429Z,97774.84
2019-05-09T09:47:49.332Z,97759.58
2019-05-09T09:50:20.280Z,97765.06
2019-05-09T09:52:51.111Z,97763.96
2019-05-09T09:55:22.048Z,97766.77
2019-05-09T09:57:53.596Z,97762.94
2019-05-09T10:01:14.745Z,97761.29
2019-05-09T10:03:47.386Z,97766.42
2019-05-09T10:06:18.415Z,97772.33
2019-05-09T10:08:49.164Z,97763.78
2019-05-09T10:11:19.885Z,97772.67
2019-05-09T10:13:52.040Z,97771.02
2019-05-09T10:16:55.205Z,97767.55
2019-05-09T10:19:34.139Z,97777.03
2019-05-09T10:22:08.295Z,97781.52
2019-05-09T10:24:38.420Z,97783.98
2019-05-09T10:27:11.077Z,97789.35
2019-05-09T10:29:41.788Z,97791.14
2019-05-09T10:32:13.961Z,97783.30
2019-05-09T10:34:44.801Z,97788.42
2019-05-09T10:37:18.326Z,97785.05
2019-05-09T10:39:48.963Z,97784.35
2019-05-09T10:42:38.080Z,97801.11
2019-05-09T10:45:39.936Z,97789.73
2019-05-09T10:48:08.403Z,97791.88
2019-05-09T10:50:44.749Z,97795.68
2019-05-09T10:53:11.985Z,97817.27
2019-05-09T10:55:42.716Z,97815.97
2019-05-09T10:58:13.382Z,97815.81
2019-05-09T11:00:44.549Z,97828.43
2019-05-09T11:03:17.908Z,97825.27
2019-05-09T11:05:47.873Z,97818.71
2019-05-09T11:08:18.760Z,97836.98
2019-05-09T11:10:49.547Z,97839.75
2019-05-09T11:13:20.685Z,97840.29
2019-05-09T11:15:51.532Z,97837.95
2019-05-09T11:18:22.300Z,97838.53
2019-05-09T11:20:52.895Z,97841.30
2019-05-09T11:23:23.549Z,97854.25
2019-05-09T11:25:54.159Z,97849.14
2019-05-09T11:28:25.044Z,97849.40
2019-05-09T11:30:58.318Z,97853.55
2019-05-09T11:33:28.444Z,97867.97
2019-05-09T11:35:59.171Z,97869.30
2019-05-09T11:38:36.593Z,97874.53
2019-05-09T11:41:02.851Z,97881.17
2019-05-09T11:43:33.591Z,97872.86
2019-05-09T11:46:04.472Z,97864.55
2019-05-09T11:48:38.021Z,97858.25
2019-05-09T11:51:08.968Z,97863.31
2019-05-09T11:53:40.248Z,97858.73
2019-05-09T11:56:11.134Z,97860.06
2019-05-09T11:58:41.920Z,97859.22
2019-05-09T12:01:13.690Z,97876.91
2019-05-09T12:03:44.617Z,97873.52
2019-05-09T12:06:16.181Z,97885.18
2019-05-09T12:08:48.287Z,97888.42
2019-05-09T12:11:19.573Z,97899.38
2019-05-09T12:13:50.220Z,97903.02
2019-05-09T12:16:21.081Z,97901.11
2019-05-09T12:18:51.815Z,97898.56
2019-05-09T12:21:22.558Z,97896.30
2019-05-09T12:23:54.378Z,97893.20
2019-05-09T12:26:25.068Z,97887.55
2019-05-09T12:28:57.784Z,97894.40
2019-05-09T12:31:29.114Z,97880.45
2019-05-09T12:34:01.052Z,97890.80
2019-05-09T12:36:31.746Z,97888.28
2019-05-09T12:39:02.546Z,97899.16
2019-05-09T12:41:34.542Z,97906.16
2019-05-09T12:44:05.437Z,97898.53
2019-05-09T12:46:39.435Z,97899.83
2019-05-09T12:49:09.161Z,97899.16
2019-05-09T12:51:40.117Z,97904.90
2019-05-09T12:54:10.780Z,97903.89
2019-05-09T12:56:41.461Z,97912.05
2019-05-09T12:59:12.328Z,97900.77
2019-05-09T13:01:43.213Z,97906.55
2019-05-09T13:04:14.146Z,97906.84
2019-05-09T13:06:44.942Z,97910.34
2019-05-09T13:09:17.778Z,97901.59
2019-05-09T13:11:48.478Z,97913.06
2019-05-09T13:14:19.696Z,97908.46
2019-05-09T13:17:12.436Z,97923.56
2019-05-09T13:19:47.961Z,97928.44
2019-05-09T13:22:18.557Z,97941.19
2019-05-09T13:24:49.405Z,97944.06
2019-05-09T13:27:20.103Z,97965.50
2019-05-09T13:29:50.968Z,97957.06
2019-05-09T13:32:21.670Z,97963.73
2019-05-09T13:34:52.333Z,97971.24
2019-05-09T13:37:23.138Z,97968.32
2019-05-09T13:39:53.905Z,97971.55
2019-05-09T13:42:24.719Z,97973.97
2019-05-09T13:44:55.537Z,97963.77
2019-05-09T13:47:28.023Z,97967.16
2019-05-09T13:49:59.264Z,97962.95
2019-05-09T13:52:30.206Z,97969.89
2019-05-09T13:55:00.836Z,97966.23
2019-05-09T13:57:32.529Z,97972.20
2019-05-09T14:00:04.299Z,97976.50
2019-05-09T14:02:35.001Z,97979.76
2019-05-09T14:05:08.781Z,97987.14
2019-05-09T14:07:38.551Z,97982.25
2019-05-09T14:10:10.382Z,97986.47
2019-05-09T14:12:41.044Z,97990.99
2019-05-09T14:15:11.606Z,97994.34
2019-05-09T14:17:49.801Z,97990.61
2019-05-09T14:20:14.566Z,97990.63
2019-05-09T14:22:45.407Z,97995.31
2019-05-09T14:25:19.204Z,97998.75
2019-05-09T14:27:51.670Z,97999.03
2019-05-09T14:30:21.245Z,97999.70
2019-05-09T14:32:51.852Z,97995.73
2019-05-09T14:35:22.627Z,98002.02
2019-05-09T14:37:53.566Z,98009.33
2019-05-09T14:40:24.401Z,97999.38
2019-05-09T14:42:57.664Z,98002.01
2019-05-09T14:45:28.125Z,98010.63
2019-05-09T14:47:58.920Z,97998.25
2019-05-09T14:50:29.822Z,98005.36
2019-05-09T14:53:00.717Z,98013.98
2019-05-09T14:55:31.398Z,98020.48
2019-05-09T14:58:03.105Z,98025.98
2019-05-09T15:00:33.772Z,98035.55
2019-05-09T15:03:04.720Z,98029.89
2019-05-09T15:05:37.801Z,98031.91
2019-05-09T15:08:07.959Z,98036.02
2019-05-09T15:10:38.688Z,98038.59
2019-05-09T15:13:09.610Z,98047.20
2019-05-09T15:15:40.467Z,98047.34
2019-05-09T15:18:11.400Z,98045.42
2019-05-09T15:20:42.272Z,98043.83
2019-05-09T15:23:12.957Z,98051.98
2019-05-09T15:25:43.742Z,98059.33
2019-05-09T15:28:14.584Z,98061.73
2019-05-09T15:30:48.714Z,98070.08
2019-05-09T15:33:17.795Z,98063.09
2019-05-09T15:35:48.858Z,98076.27
2019-05-09T15:38:22.402Z,98074.16
2019-05-09T15:40:52.038Z,98074.19
2019-05-09T15:43:22.809Z,98067.16
2019-05-09T15:45:59.145Z,98073.75
2019-05-09T15:48:29.883Z,98070.75
2019-05-09T15:51:00.671Z,98069.74
2019-05-09T15:53:31.458Z,98075.41
2019-05-09T15:56:02.348Z,98084.54
2019-05-09T15:58:33.048Z,98095.31
2019-05-09T16:01:04.027Z,98090.91
2019-05-09T16:03:34.785Z,98095.91
2019-05-09T16:06:05.580Z,98104.93
2019-05-09T16:08:38.172Z,98110.13
2019-05-09T16:11:08.931Z,98104.71
2019-05-09T16:13:39.636Z,98106.06
2019-05-09T16:16:10.407Z,98108.63
2019-05-09T16:18:42.911Z,98115.38
2019-05-09T16:21:13.960Z,98113.01
2019-05-09T16:23:44.755Z,98115.39
2019-05-09T16:26:17.975Z,98114.89
2019-05-09T16:28:48.782Z,98117.24
2019-05-09T16:31:19.790Z,98121.05
2019-05-09T16:33:50.613Z,98132.52
2019-05-09T16:36:21.373Z,98132.54
2019-05-09T16:38:52.133Z,98128.40
2019-05-09T16:41:22.937Z,98123.38
2019-05-09T16:43:53.692Z,98125.72
2019-05-09T16:46:24.545Z,98134.85
2019-05-09T16:48:57.961Z,98126.98
2019-05-09T16:51:28.680Z,98129.17
2019-05-09T16:53:59.609Z,98126.89
2019-05-09T16:56:30.474Z,98134.12
2019-05-09T16:59:01.271Z,98137.61
2019-05-09T17:01:32.116Z,98135.31
2019-05-09T17:04:03.969Z,98131.98
2019-05-09T17:06:34.814Z,98145.39
2019-05-09T17:09:08.423Z,98154.07
2019-05-09T17:11:39.240Z,98167.33
2019-05-09T17:14:10.249Z,98173.14
2019-05-09T17:16:41.351Z,98185.67
2019-05-09T17:19:12.229Z,98190.56
2019-05-09T17:21:49.096Z,98200.67
2019-05-09T17:24:20.189Z,98196.87
2019-05-09T17:26:51.067Z,98194.42
2019-05-09T17:29:21.960Z,98189.01
2019-05-09T17:31:52.801Z,98196.64
2019-05-09T17:34:23.781Z,98194.73
2019-05-09T17:36:54.640Z,98206.70
2019-05-09T17:39:27.643Z,98196.38
2019-05-09T17:41:58.403Z,98201.53
2019-05-09T17:44:29.222Z,98207.78
2019-05-09T17:47:00.122Z,98223.79
2019-05-09T17:49:30.973Z,98219.70
2019-05-09T17:52:01.653Z,98229.74
2019-05-09T17:54:32.580Z,98229.19
2019-05-09T17:57:03.733Z,98232.73
2019-05-09T17:59:34.563Z,98234.60
2019-05-09T18:02:05.316Z,98243.56
2019-05-09T18:04:37.870Z,98244.64
2019-05-09T18:07:09.019Z,98247.08
2019-05-09T18:09:39.878Z,98248.70
2019-05-09T18:12:10.681Z,98257.09
2019-05-09T18:14:41.463Z,98255.50
2019-05-09T18:17:12.349Z,98258.20
2019-05-09T18:19:43.108Z,98242.22
2019-05-09T18:22:14.071Z,98248.70
2019-05-09T18:24:44.962Z,98259.03
2019-05-09T18:27:17.963Z,98267.68
2019-05-09T18:29:48.182Z,98277.19
2019-05-09T18:32:47.703Z,98281.78
2019-05-09T18:35:20.917Z,98294.80
2019-05-09T18:37:52.000Z,98303.73
2019-05-09T18:40:23.019Z,98302.89
2019-05-09T18:42:53.812Z,98308.82
2019-05-09T18:45:25.196Z,98313.37
2019-05-09T18:47:58.075Z,98315.81
2019-05-09T18:50:28.554Z,98318.27
2019-05-09T18:52:59.431Z,98326.29
2019-05-09T18:55:30.235Z,98328.44
2019-05-09T18:58:01.149Z,98334.38
2019-05-09T19:00:31.975Z,98335.20
2019-05-09T19:03:02.939Z,98335.81
2019-05-09T19:05:33.876Z,98333.91
2019-05-09T19:08:04.857Z,98338.48
2019-05-09T19:10:35.652Z,98347.69
2019-05-09T19:13:07.313Z,98347.91
2019-05-09T19:15:52.518Z,98349.38
2019-05-09T19:18:42.500Z,98357.80
2019-05-09T19:21:20.066Z,98365.67
2019-05-09T19:23:51.021Z,98368.89
2019-05-09T19:26:37.718Z,98379.50
2019-05-09T19:29:09.589Z,98388.47
2019-05-09T19:31:40.788Z,98394.15
2019-05-09T19:34:12.158Z,98398.02
2019-05-09T19:36:42.997Z,98398.40
2019-05-09T19:39:14.272Z,98406.75
2019-05-09T19:41:45.045Z,98414.72
2019-05-09T19:44:16.029Z,98412.58
2019-05-09T19:46:46.959Z,98420.37
2019-05-09T19:49:17.854Z,98414.26
2019-05-09T19:51:49.452Z,98409.22
2019-05-09T19:54:20.337Z,98400.20
2019-05-09T19:56:51.568Z,98408.69
2019-05-09T19:59:23.889Z,98418.45
2019-05-09T20:01:54.712Z,98421.09
2019-05-09T20:04:25.613Z,98434.28
2019-05-09T20:06:56.562Z,98440.52
2019-05-09T20:09:33.529Z,98439.80
2019-05-09T20:12:29.632Z,98446.86
2019-05-09T20:15:00.877Z,98448.20
2019-05-09T20:17:31.817Z,98441.75
2019-05-09T20:20:02.769Z,98446.27
2019-05-09T20:22:34.473Z,98448.61
2019-05-09T20:25:06.004Z,98448.14
2019-05-09T20:27:36.790Z,98455.70
2019-05-09T20:30:07.969Z,98465.20
2019-05-09T20:32:38.914Z,98463.13
2019-05-09T20:35:09.889Z,98474.92
2019-05-09T20:37:40.946Z,98465.76
2019-05-09T20:40:12.498Z,98473.91
2019-05-09T20:42:43.638Z,98476.28
2019-05-09T20:45:14.833Z,98473.35
2019-05-09T20:47:45.784Z,98476.20
2019-05-09T20:50:16.862Z,98475.86
2019-05-09T20:52:47.952Z,98485.00
2019-05-09T20:55:19.012Z,98487.52
2019-05-09T20:57:52.085Z,98489.89
2019-05-09T21:00:23.004Z,98487.81
2019-05-09T21:02:54.044Z,98489.12
2019-05-09T21:05:25.028Z,98491.72
2019-05-09T21:07:56.245Z,98490.41
2019-05-09T21:10:27.207Z,98498.52
2019-05-09T21:12:58.150Z,98492.59
2019-05-09T21:15:30.253Z,98500.78
2019-05-09T21:18:01.044Z,98511.12
2019-05-09T21:20:31.979Z,98504.27
2019-05-09T21:23:03.003Z,98504.16
2019-05-09T21:25:33.888Z,98503.37
2019-05-09T21:28:04.826Z,98501.53
2019-05-09T21:30:36.715Z,98511.22
2019-05-09T21:33:07.698Z,98507.55
2019-05-09T21:35:38.477Z,98508.78
2019-05-09T21:38:09.398Z,98508.00
2019-05-09T21:40:40.228Z,98501.94
2019-05-09T21:43:11.094Z,98499.61
2019-05-09T21:45:41.769Z,98499.84
2019-05-09T21:48:12.570Z,98493.63
2019-05-09T21:50:43.534Z,98497.96
2019-05-09T21:53:14.200Z,98493.11
2019-05-09T21:55:44.984Z,98499.53
2019-05-09T21:58:15.776Z,98499.61
2019-05-09T22:00:50.876Z,98498.34
2019-05-09T22:03:23.365Z,98500.97
2019-05-09T22:05:54.286Z,98501.98
2019-05-09T22:08:25.996Z,98504.27
2019-05-09T22:10:56.881Z,98503.14
2019-05-09T22:13:27.786Z,98501.27
2019-05-09T22:15:58.737Z,98499.61
2019-05-09T22:18:29.570Z,98494.30
2019-05-09T22:21:00.651Z,98500.09
2019-05-09T22:23:31.437Z,98498.14
2019-05-09T22:26:02.193Z,98502.73
2019-05-09T22:28:32.947Z,98499.84
2019-05-09T22:31:03.969Z,98501.15
2019-05-09T22:33:34.780Z,98498.70
2019-05-09T22:36:05.658Z,98491.38
2019-05-09T22:38:36.463Z,98487.41
2019-05-09T22:41:07.400Z,98489.25
2019-05-09T22:43:38.351Z,98491.43
2019-05-09T22:46:09.072Z,98497.80
2019-05-09T22:48:39.841Z,98499.97
2019-05-09T22:51:10.752Z,98497.09
2019-05-09T22:53:41.736Z,98501.11
2019-05-09T22:56:12.589Z,98509.39
2019-05-09T22:58:43.320Z,98510.42
2019-05-09T23:01:14.941Z,98505.27
2019-05-09T23:03:45.712Z,98503.62
2019-05-09T23:06:16.451Z,98504.08
2019-05-09T23:08:47.409Z,98501.27
2019-05-09T23:11:18.213Z,98507.14
2019-05-09T23:13:52.434Z,98511.35
2019-05-09T23:16:24.778Z,98514.56
2019-05-09T23:18:55.990Z,98514.52
2019-05-09T23:21:28.256Z,98508.02
2019-05-09T23:24:01.750Z,98513.72
2019-05-09T23:26:32.596Z,98510.61
2019-05-09T23:29:03.445Z,98516.45
2019-05-09T23:31:56.309Z,98517.70
2019-05-09T23:34:27.072Z,98515.32
2019-05-09T23:36:57.884Z,98510.56
2019-05-09T23:39:31.645Z,98513.64
2019-05-09T23:42:02.350Z,98514.42
2019-05-09T23:44:33.257Z,98519.94
2019-05-09T23:47:03.972Z,98533.95
2019-05-09T23:49:34.836Z,98524.77
2019-05-09T23:52:05.830Z,98531.20
2019-05-09T23:54:54.319Z,98534.45
2019-05-09T23:57:42.968Z,98525.03
